LST weather

Launceston Airport
Launceston, Tasmania, Australia

Public forecast

Using degrees Celsius for public forecast. Weather courtesy of forecast.io.

METAR (pilot weather report)

Retrieved 2019/01/22 12:30 UTC (18 minutes ago):

YMLT 221230Z AUTO 33009KT 9999 // SCT115 19/10 Q1007 RF00.0/000.0

TAF (pilot weather forecast)

Retrieved 2019/01/22 12:36 UTC (12 minutes ago):

TAF YMLT 221111Z 2212/2312 35010KT CAVOK FM221500 14007KT CAVOK FM221800 14014KT 9999 SCT030 FM230300 15008KT CAVOK FM230600 36015G25KT 9999 SCT035